sensor_id;sensor_type;location;lat;lon;timestamp;P1;durP1;ratioP1;P2;durP2;ratioP2
705;SDS011;21234;48.690;9.016;2023-06-22T00:01:16;11.53;;;9.17;;
705;SDS011;21234;48.690;9.016;2023-06-22T00:03:43;10.47;;;8.17;;
705;SDS011;21234;48.690;9.016;2023-06-22T00:06:09;9.50;;;8.50;;
705;SDS011;21234;48.690;9.016;2023-06-22T00:08:36;11.23;;;9.30;;
705;SDS011;21234;48.690;9.016;2023-06-22T00:11:03;9.03;;;8.13;;
705;SDS011;21234;48.690;9.016;2023-06-22T00:13:31;12.30;;;9.27;;
705;SDS011;21234;48.690;9.016;2023-06-22T00:15:57;9.87;;;8.83;;
705;SDS011;21234;48.690;9.016;2023-06-22T00:18:24;10.50;;;8.97;;
705;SDS011;21234;48.690;9.016;2023-06-22T00:20:55;10.20;;;7.77;;
705;SDS011;21234;48.690;9.016;2023-06-22T00:23:23;9.30;;;8.37;;
705;SDS011;21234;48.690;9.016;2023-06-22T00:25:51;12.17;;;9.10;;
705;SDS011;21234;48.690;9.016;2023-06-22T00:28:18;9.87;;;8.03;;
705;SDS011;21234;48.690;9.016;2023-06-22T00:30:46;10.67;;;8.13;;
705;SDS011;21234;48.690;9.016;2023-06-22T00:33:13;9.30;;;8.37;;
705;SDS011;21234;48.690;9.016;2023-06-22T00:35:41;13.73;;;8.87;;
705;SDS011;21234;48.690;9.016;2023-06-22T00:38:07;9.70;;;8.70;;
705;SDS011;21234;48.690;9.016;2023-06-22T00:40:34;9.30;;;8.47;;
705;SDS011;21234;48.690;9.016;2023-06-22T00:43:01;10.53;;;9.00;;
705;SDS011;21234;48.690;9.016;2023-06-22T00:45:28;9.60;;;8.67;;
705;SDS011;21234;48.690;9.016;2023-06-22T00:47:56;8.77;;;7.70;;
705;SDS011;21234;48.690;9.016;2023-06-22T00:50:24;11.90;;;9.60;;
705;SDS011;21234;48.690;9.016;2023-06-22T00:52:53;11.90;;;8.63;;
705;SDS011;21234;48.690;9.016;2023-06-22T00:55:23;8.97;;;8.17;;
705;SDS011;21234;48.690;9.016;2023-06-22T00:57:51;9.90;;;7.90;;
705;SDS011;21234;48.690;9.016;2023-06-22T01:00:21;9.83;;;7.97;;
705;SDS011;21234;48.690;9.016;2023-06-22T01:02:49;10.13;;;6.90;;
705;SDS011;21234;48.690;9.016;2023-06-22T01:05:18;12.20;;;8.40;;
705;SDS011;21234;48.690;9.016;2023-06-22T01:07:49;9.93;;;8.47;;
705;SDS011;21234;48.690;9.016;2023-06-22T01:10:23;11.77;;;8.80;;
705;SDS011;21234;48.690;9.016;2023-06-22T01:13:02;7.93;;;6.87;;
705;SDS011;21234;48.690;9.016;2023-06-22T01:15:35;10.57;;;8.97;;
705;SDS011;21234;48.690;9.016;2023-06-22T01:18:06;9.50;;;8.60;;
705;SDS011;21234;48.690;9.016;2023-06-22T01:20:37;9.23;;;8.33;;
705;SDS011;21234;48.690;9.016;2023-06-22T01:23:09;10.30;;;9.03;;
705;SDS011;21234;48.690;9.016;2023-06-22T01:25:45;10.23;;;9.17;;
705;SDS011;21234;48.690;9.016;2023-06-22T01:28:24;9.27;;;8.30;;
705;SDS011;21234;48.690;9.016;2023-06-22T01:31:08;7.83;;;7.13;;
705;SDS011;21234;48.690;9.016;2023-06-22T01:33:37;9.57;;;7.93;;
705;SDS011;21234;48.690;9.016;2023-06-22T01:36:05;8.80;;;7.90;;
705;SDS011;21234;48.690;9.016;2023-06-22T01:38:33;8.40;;;7.50;;
705;SDS011;21234;48.690;9.016;2023-06-22T01:41:01;8.90;;;8.00;;
705;SDS011;21234;48.690;9.016;2023-06-22T01:43:31;9.53;;;8.57;;
705;SDS011;21234;48.690;9.016;2023-06-22T01:46:00;9.30;;;8.40;;
705;SDS011;21234;48.690;9.016;2023-06-22T01:48:28;10.73;;;9.30;;
705;SDS011;21234;48.690;9.016;2023-06-22T01:50:55;10.07;;;8.10;;
705;SDS011;21234;48.690;9.016;2023-06-22T01:53:22;12.73;;;8.90;;
705;SDS011;21234;48.690;9.016;2023-06-22T01:55:49;9.70;;;8.70;;
705;SDS011;21234;48.690;9.016;2023-06-22T01:58:16;10.73;;;8.60;;
705;SDS011;21234;48.690;9.016;2023-06-22T02:00:44;11.53;;;8.67;;
705;SDS011;21234;48.690;9.016;2023-06-22T02:03:17;10.73;;;8.97;;
705;SDS011;21234;48.690;9.016;2023-06-22T02:05:48;9.30;;;8.20;;
705;SDS011;21234;48.690;9.016;2023-06-22T02:08:19;10.40;;;9.30;;
705;SDS011;21234;48.690;9.016;2023-06-22T02:10:48;11.57;;;9.17;;
705;SDS011;21234;48.690;9.016;2023-06-22T02:13:17;9.60;;;7.77;;
705;SDS011;21234;48.690;9.016;2023-06-22T02:15:45;10.60;;;7.60;;
705;SDS011;21234;48.690;9.016;2023-06-22T02:18:13;8.73;;;7.93;;
705;SDS011;21234;48.690;9.016;2023-06-22T02:20:41;8.70;;;7.90;;
705;SDS011;21234;48.690;9.016;2023-06-22T02:23:08;8.67;;;7.80;;
705;SDS011;21234;48.690;9.016;2023-06-22T02:25:35;10.47;;;9.37;;
705;SDS011;21234;48.690;9.016;2023-06-22T02:28:03;9.27;;;8.37;;
705;SDS011;21234;48.690;9.016;2023-06-22T02:30:30;8.73;;;7.83;;
705;SDS011;21234;48.690;9.016;2023-06-22T02:32:57;9.40;;;7.33;;
705;SDS011;21234;48.690;9.016;2023-06-22T02:35:25;9.93;;;7.90;;
705;SDS011;21234;48.690;9.016;2023-06-22T02:37:53;8.80;;;7.90;;
705;SDS011;21234;48.690;9.016;2023-06-22T02:40:20;9.97;;;8.70;;
705;SDS011;21234;48.690;9.016;2023-06-22T02:42:47;14.27;;;8.27;;
705;SDS011;21234;48.690;9.016;2023-06-22T02:45:14;8.83;;;7.93;;
705;SDS011;21234;48.690;9.016;2023-06-22T02:47:40;8.73;;;7.20;;
705;SDS011;21234;48.690;9.016;2023-06-22T02:50:08;10.30;;;7.57;;
705;SDS011;21234;48.690;9.016;2023-06-22T02:52:36;11.20;;;9.60;;
705;SDS011;21234;48.690;9.016;2023-06-22T02:55:05;10.43;;;8.30;;
705;SDS011;21234;48.690;9.016;2023-06-22T02:57:33;9.23;;;7.73;;
705;SDS011;21234;48.690;9.016;2023-06-22T03:00:02;12.97;;;7.93;;
705;SDS011;21234;48.690;9.016;2023-06-22T03:02:31;8.53;;;7.60;;
705;SDS011;21234;48.690;9.016;2023-06-22T03:04:58;7.70;;;6.97;;
705;SDS011;21234;48.690;9.016;2023-06-22T03:07:26;7.40;;;6.80;;
705;SDS011;21234;48.690;9.016;2023-06-22T03:09:55;10.10;;;8.30;;
705;SDS011;21234;48.690;9.016;2023-06-22T03:12:23;8.57;;;7.63;;
705;SDS011;21234;48.690;9.016;2023-06-22T03:14:50;8.10;;;7.40;;
705;SDS011;21234;48.690;9.016;2023-06-22T03:17:17;9.43;;;7.33;;
705;SDS011;21234;48.690;9.016;2023-06-22T03:19:44;8.37;;;7.53;;
705;SDS011;21234;48.690;9.016;2023-06-22T03:22:10;8.07;;;7.27;;
705;SDS011;21234;48.690;9.016;2023-06-22T03:24:37;8.67;;;7.73;;
705;SDS011;21234;48.690;9.016;2023-06-22T03:27:04;7.53;;;6.83;;
705;SDS011;21234;48.690;9.016;2023-06-22T03:29:33;14.07;;;9.13;;
705;SDS011;21234;48.690;9.016;2023-06-22T03:31:59;10.07;;;7.83;;
705;SDS011;21234;48.690;9.016;2023-06-22T03:34:26;9.57;;;8.47;;
705;SDS011;21234;48.690;9.016;2023-06-22T03:36:53;10.50;;;8.87;;
705;SDS011;21234;48.690;9.016;2023-06-22T03:39:19;10.63;;;8.43;;
705;SDS011;21234;48.690;9.016;2023-06-22T03:41:46;10.33;;;9.37;;
705;SDS011;21234;48.690;9.016;2023-06-22T03:44:13;10.47;;;7.30;;
705;SDS011;21234;48.690;9.016;2023-06-22T03:46:41;12.33;;;9.67;;
705;SDS011;21234;48.690;9.016;2023-06-22T03:49:07;9.60;;;8.60;;
705;SDS011;21234;48.690;9.016;2023-06-22T03:51:34;8.77;;;7.87;;
705;SDS011;21234;48.690;9.016;2023-06-22T03:54:01;12.07;;;7.80;;
705;SDS011;21234;48.690;9.016;2023-06-22T03:56:28;11.80;;;10.10;;
705;SDS011;21234;48.690;9.016;2023-06-22T03:58:54;10.47;;;8.60;;
705;SDS011;21234;48.690;9.016;2023-06-22T04:01:21;9.47;;;8.47;;
705;SDS011;21234;48.690;9.016;2023-06-22T04:03:49;11.90;;;9.63;;
705;SDS011;21234;48.690;9.016;2023-06-22T04:06:16;9.00;;;8.10;;
705;SDS011;21234;48.690;9.016;2023-06-22T04:08:44;10.20;;;9.30;;
705;SDS011;21234;48.690;9.016;2023-06-22T04:11:13;9.63;;;8.73;;
705;SDS011;21234;48.690;9.016;2023-06-22T04:13:39;8.23;;;7.43;;
705;SDS011;21234;48.690;9.016;2023-06-22T04:16:06;11.13;;;8.50;;
705;SDS011;21234;48.690;9.016;2023-06-22T04:18:33;9.57;;;8.57;;
705;SDS011;21234;48.690;9.016;2023-06-22T04:21:01;12.33;;;8.03;;
705;SDS011;21234;48.690;9.016;2023-06-22T04:23:28;10.03;;;9.07;;
705;SDS011;21234;48.690;9.016;2023-06-22T04:25:55;10.40;;;8.50;;
705;SDS011;21234;48.690;9.016;2023-06-22T04:28:22;9.00;;;8.20;;
705;SDS011;21234;48.690;9.016;2023-06-22T04:30:49;9.50;;;8.70;;
705;SDS011;21234;48.690;9.016;2023-06-22T04:33:16;10.03;;;8.13;;
705;SDS011;21234;48.690;9.016;2023-06-22T04:35:44;11.83;;;9.50;;
705;SDS011;21234;48.690;9.016;2023-06-22T04:38:13;18.10;;;7.60;;
705;SDS011;21234;48.690;9.016;2023-06-22T04:40:40;7.87;;;7.07;;
705;SDS011;21234;48.690;9.016;2023-06-22T04:43:07;9.17;;;7.57;;
705;SDS011;21234;48.690;9.016;2023-06-22T04:45:35;9.77;;;8.40;;
705;SDS011;21234;48.690;9.016;2023-06-22T04:48:03;8.47;;;7.70;;
705;SDS011;21234;48.690;9.016;2023-06-22T04:50:30;8.33;;;7.47;;
705;SDS011;21234;48.690;9.016;2023-06-22T04:52:57;10.20;;;7.87;;
705;SDS011;21234;48.690;9.016;2023-06-22T04:55:25;10.63;;;8.33;;
705;SDS011;21234;48.690;9.016;2023-06-22T04:57:52;10.97;;;8.07;;
705;SDS011;21234;48.690;9.016;2023-06-22T05:00:19;8.90;;;8.10;;
705;SDS011;21234;48.690;9.016;2023-06-22T05:02:48;9.47;;;7.50;;
705;SDS011;21234;48.690;9.016;2023-06-22T05:05:15;9.17;;;7.90;;
705;SDS011;21234;48.690;9.016;2023-06-22T05:07:42;11.83;;;8.20;;
705;SDS011;21234;48.690;9.016;2023-06-22T05:10:10;8.83;;;8.03;;
705;SDS011;21234;48.690;9.016;2023-06-22T05:12:39;8.37;;;6.90;;
705;SDS011;21234;48.690;9.016;2023-06-22T05:15:07;9.40;;;8.47;;
705;SDS011;21234;48.690;9.016;2023-06-22T05:17:34;10.80;;;7.97;;
705;SDS011;21234;48.690;9.016;2023-06-22T05:20:03;9.37;;;7.93;;
705;SDS011;21234;48.690;9.016;2023-06-22T05:22:31;9.33;;;8.03;;
705;SDS011;21234;48.690;9.016;2023-06-22T05:24:58;7.47;;;6.67;;
705;SDS011;21234;48.690;9.016;2023-06-22T05:27:24;10.33;;;7.17;;
705;SDS011;21234;48.690;9.016;2023-06-22T05:29:53;8.93;;;6.33;;
705;SDS011;21234;48.690;9.016;2023-06-22T05:32:19;8.43;;;7.00;;
705;SDS011;21234;48.690;9.016;2023-06-22T05:34:46;7.57;;;5.77;;
705;SDS011;21234;48.690;9.016;2023-06-22T05:37:13;14.10;;;7.43;;
705;SDS011;21234;48.690;9.016;2023-06-22T05:39:39;9.83;;;6.50;;
705;SDS011;21234;48.690;9.016;2023-06-22T05:42:06;8.40;;;6.60;;
705;SDS011;21234;48.690;9.016;2023-06-22T05:44:33;8.77;;;6.17;;
705;SDS011;21234;48.690;9.016;2023-06-22T05:47:02;7.37;;;5.57;;
705;SDS011;21234;48.690;9.016;2023-06-22T05:49:29;11.03;;;6.60;;
705;SDS011;21234;48.690;9.016;2023-06-22T05:51:58;7.40;;;5.73;;
705;SDS011;21234;48.690;9.016;2023-06-22T05:54:25;7.37;;;5.70;;
705;SDS011;21234;48.690;9.016;2023-06-22T05:56:51;7.10;;;5.87;;
705;SDS011;21234;48.690;9.016;2023-06-22T05:59:18;7.63;;;5.80;;
705;SDS011;21234;48.690;9.016;2023-06-22T06:01:45;7.00;;;5.50;;
705;SDS011;21234;48.690;9.016;2023-06-22T06:04:16;7.40;;;5.67;;
705;SDS011;21234;48.690;9.016;2023-06-22T06:06:43;8.90;;;6.60;;
705;SDS011;21234;48.690;9.016;2023-06-22T06:09:10;9.60;;;6.57;;
705;SDS011;21234;48.690;9.016;2023-06-22T06:11:37;8.03;;;6.67;;
705;SDS011;21234;48.690;9.016;2023-06-22T06:14:04;8.00;;;5.70;;
705;SDS011;21234;48.690;9.016;2023-06-22T06:16:31;6.70;;;5.37;;
705;SDS011;21234;48.690;9.016;2023-06-22T06:18:58;8.10;;;6.40;;
705;SDS011;21234;48.690;9.016;2023-06-22T06:21:26;8.00;;;6.57;;
705;SDS011;21234;48.690;9.016;2023-06-22T06:23:52;8.40;;;6.43;;
705;SDS011;21234;48.690;9.016;2023-06-22T06:26:19;5.67;;;5.17;;
705;SDS011;21234;48.690;9.016;2023-06-22T06:28:54;6.30;;;5.80;;
705;SDS011;21234;48.690;9.016;2023-06-22T06:31:22;5.30;;;4.80;;
705;SDS011;21234;48.690;9.016;2023-06-22T06:33:48;7.77;;;5.40;;
705;SDS011;21234;48.690;9.016;2023-06-22T06:36:15;10.23;;;6.23;;
705;SDS011;21234;48.690;9.016;2023-06-22T06:38:43;6.63;;;6.03;;
705;SDS011;21234;48.690;9.016;2023-06-22T06:41:12;7.20;;;6.50;;
705;SDS011;21234;48.690;9.016;2023-06-22T06:43:39;7.70;;;5.37;;
705;SDS011;21234;48.690;9.016;2023-06-22T06:46:05;5.97;;;5.30;;
705;SDS011;21234;48.690;9.016;2023-06-22T06:48:32;7.07;;;6.37;;
705;SDS011;21234;48.690;9.016;2023-06-22T06:50:59;8.33;;;5.33;;
705;SDS011;21234;48.690;9.016;2023-06-22T06:53:25;5.67;;;5.10;;
705;SDS011;21234;48.690;9.016;2023-06-22T06:55:55;8.93;;;5.37;;
705;SDS011;21234;48.690;9.016;2023-06-22T06:58:21;6.13;;;5.10;;
705;SDS011;21234;48.690;9.016;2023-06-22T07:00:48;6.57;;;4.77;;
705;SDS011;21234;48.690;9.016;2023-06-22T07:03:15;5.90;;;5.20;;
705;SDS011;21234;48.690;9.016;2023-06-22T07:05:42;9.77;;;5.93;;
705;SDS011;21234;48.690;9.016;2023-06-22T07:08:09;5.67;;;5.13;;
705;SDS011;21234;48.690;9.016;2023-06-22T07:10:35;6.20;;;5.60;;
705;SDS011;21234;48.690;9.016;2023-06-22T07:13:04;6.53;;;5.20;;
705;SDS011;21234;48.690;9.016;2023-06-22T07:15:30;10.20;;;5.07;;
705;SDS011;21234;48.690;9.016;2023-06-22T07:17:57;6.30;;;5.70;;
705;SDS011;21234;48.690;9.016;2023-06-22T07:20:24;6.60;;;5.23;;
705;SDS011;21234;48.690;9.016;2023-06-22T07:22:51;6.37;;;5.77;;
705;SDS011;21234;48.690;9.016;2023-06-22T07:25:17;6.23;;;4.63;;
705;SDS011;21234;48.690;9.016;2023-06-22T07:27:45;7.60;;;5.83;;
705;SDS011;21234;48.690;9.016;2023-06-22T07:30:14;7.17;;;5.57;;
705;SDS011;21234;48.690;9.016;2023-06-22T07:32:41;6.37;;;5.67;;
705;SDS011;21234;48.690;9.016;2023-06-22T07:35:08;6.97;;;5.50;;
705;SDS011;21234;48.690;9.016;2023-06-22T07:37:35;5.90;;;5.30;;
705;SDS011;21234;48.690;9.016;2023-06-22T07:40:02;6.40;;;5.80;;
705;SDS011;21234;48.690;9.016;2023-06-22T07:42:31;10.00;;;5.30;;
705;SDS011;21234;48.690;9.016;2023-06-22T07:44:59;6.73;;;5.20;;
705;SDS011;21234;48.690;9.016;2023-06-22T07:47:28;7.53;;;5.43;;
705;SDS011;21234;48.690;9.016;2023-06-22T07:49:55;7.73;;;5.83;;
705;SDS011;21234;48.690;9.016;2023-06-22T07:52:23;6.00;;;5.37;;
705;SDS011;21234;48.690;9.016;2023-06-22T07:54:51;9.13;;;6.57;;
705;SDS011;21234;48.690;9.016;2023-06-22T07:57:17;12.03;;;5.73;;
705;SDS011;21234;48.690;9.016;2023-06-22T07:59:44;7.93;;;6.70;;
705;SDS011;21234;48.690;9.016;2023-06-22T08:02:11;6.93;;;5.50;;
705;SDS011;21234;48.690;9.016;2023-06-22T08:04:39;6.90;;;6.13;;
705;SDS011;21234;48.690;9.016;2023-06-22T08:07:07;10.23;;;6.43;;
705;SDS011;21234;48.690;9.016;2023-06-22T08:09:34;7.00;;;5.10;;
705;SDS011;21234;48.690;9.016;2023-06-22T08:12:02;7.93;;;5.90;;
705;SDS011;21234;48.690;9.016;2023-06-22T08:14:29;5.77;;;4.93;;
705;SDS011;21234;48.690;9.016;2023-06-22T08:16:56;6.10;;;5.50;;
705;SDS011;21234;48.690;9.016;2023-06-22T08:19:23;9.90;;;6.37;;
705;SDS011;21234;48.690;9.016;2023-06-22T08:21:51;10.67;;;5.77;;
705;SDS011;21234;48.690;9.016;2023-06-22T08:24:18;10.17;;;5.73;;
705;SDS011;21234;48.690;9.016;2023-06-22T08:26:44;6.20;;;5.60;;
705;SDS011;21234;48.690;9.016;2023-06-22T08:29:11;7.50;;;5.83;;
705;SDS011;21234;48.690;9.016;2023-06-22T08:31:38;9.27;;;6.73;;
705;SDS011;21234;48.690;9.016;2023-06-22T08:34:04;7.57;;;5.90;;
705;SDS011;21234;48.690;9.016;2023-06-22T08:36:31;6.50;;;5.90;;
705;SDS011;21234;48.690;9.016;2023-06-22T08:39:04;8.00;;;6.30;;
705;SDS011;21234;48.690;9.016;2023-06-22T08:41:30;9.63;;;6.37;;
705;SDS011;21234;48.690;9.016;2023-06-22T08:43:57;8.43;;;5.97;;
705;SDS011;21234;48.690;9.016;2023-06-22T08:46:24;27.77;;;7.50;;
705;SDS011;21234;48.690;9.016;2023-06-22T08:48:55;7.73;;;6.67;;
705;SDS011;21234;48.690;9.016;2023-06-22T08:51:22;8.13;;;6.23;;
705;SDS011;21234;48.690;9.016;2023-06-22T08:53:49;7.63;;;6.93;;
705;SDS011;21234;48.690;9.016;2023-06-22T08:56:17;9.60;;;6.10;;
705;SDS011;21234;48.690;9.016;2023-06-22T08:58:44;8.10;;;6.63;;
705;SDS011;21234;48.690;9.016;2023-06-22T09:01:11;7.70;;;6.90;;
705;SDS011;21234;48.690;9.016;2023-06-22T09:03:38;6.13;;;5.50;;
705;SDS011;21234;48.690;9.016;2023-06-22T09:06:04;7.93;;;6.50;;
705;SDS011;21234;48.690;9.016;2023-06-22T09:08:31;12.37;;;7.57;;
705;SDS011;21234;48.690;9.016;2023-06-22T09:10:58;7.47;;;6.73;;
705;SDS011;21234;48.690;9.016;2023-06-22T09:13:27;8.53;;;6.60;;
705;SDS011;21234;48.690;9.016;2023-06-22T09:15:56;7.83;;;7.03;;
705;SDS011;21234;48.690;9.016;2023-06-22T09:18:23;10.83;;;6.80;;
705;SDS011;21234;48.690;9.016;2023-06-22T09:20:50;7.60;;;6.30;;
705;SDS011;21234;48.690;9.016;2023-06-22T09:23:16;10.33;;;7.13;;
705;SDS011;21234;48.690;9.016;2023-06-22T09:25:43;8.90;;;5.70;;
705;SDS011;21234;48.690;9.016;2023-06-22T09:28:12;10.33;;;7.53;;
705;SDS011;21234;48.690;9.016;2023-06-22T09:30:40;7.60;;;5.60;;
705;SDS011;21234;48.690;9.016;2023-06-22T09:33:09;13.27;;;7.30;;
705;SDS011;21234;48.690;9.016;2023-06-22T09:35:35;11.43;;;6.73;;
705;SDS011;21234;48.690;9.016;2023-06-22T09:38:02;9.17;;;8.00;;
705;SDS011;21234;48.690;9.016;2023-06-22T09:40:29;7.67;;;6.90;;
705;SDS011;21234;48.690;9.016;2023-06-22T09:42:57;7.70;;;6.87;;
705;SDS011;21234;48.690;9.016;2023-06-22T09:45:24;10.50;;;7.07;;
705;SDS011;21234;48.690;9.016;2023-06-22T09:47:52;10.07;;;7.13;;
705;SDS011;21234;48.690;9.016;2023-06-22T09:50:19;11.03;;;7.33;;
705;SDS011;21234;48.690;9.016;2023-06-22T09:52:46;8.50;;;7.30;;
705;SDS011;21234;48.690;9.016;2023-06-22T09:55:15;8.77;;;6.50;;
705;SDS011;21234;48.690;9.016;2023-06-22T09:57:42;7.67;;;6.10;;
705;SDS011;21234;48.690;9.016;2023-06-22T10:00:09;10.53;;;7.20;;
705;SDS011;21234;48.690;9.016;2023-06-22T10:02:38;10.23;;;7.10;;
705;SDS011;21234;48.690;9.016;2023-06-22T10:05:06;9.30;;;7.10;;
705;SDS011;21234;48.690;9.016;2023-06-22T10:07:33;7.93;;;7.13;;
705;SDS011;21234;48.690;9.016;2023-06-22T10:10:05;11.20;;;7.70;;
705;SDS011;21234;48.690;9.016;2023-06-22T10:12:32;9.27;;;7.70;;
705;SDS011;21234;48.690;9.016;2023-06-22T10:14:59;9.83;;;7.27;;
705;SDS011;21234;48.690;9.016;2023-06-22T10:17:26;10.57;;;7.10;;
705;SDS011;21234;48.690;9.016;2023-06-22T10:19:52;8.50;;;7.00;;
705;SDS011;21234;48.690;9.016;2023-06-22T10:22:20;7.70;;;7.00;;
705;SDS011;21234;48.690;9.016;2023-06-22T10:24:47;7.33;;;6.27;;
705;SDS011;21234;48.690;9.016;2023-06-22T10:27:14;8.23;;;7.10;;
705;SDS011;21234;48.690;9.016;2023-06-22T10:29:41;8.47;;;7.03;;
705;SDS011;21234;48.690;9.016;2023-06-22T10:32:08;6.57;;;5.60;;
705;SDS011;21234;48.690;9.016;2023-06-22T10:34:35;9.97;;;6.83;;
705;SDS011;21234;48.690;9.016;2023-06-22T10:37:01;9.70;;;7.30;;
705;SDS011;21234;48.690;9.016;2023-06-22T10:39:29;7.97;;;6.43;;
705;SDS011;21234;48.690;9.016;2023-06-22T10:41:56;9.23;;;6.80;;
705;SDS011;21234;48.690;9.016;2023-06-22T10:44:23;9.90;;;7.27;;
705;SDS011;21234;48.690;9.016;2023-06-22T10:46:50;7.90;;;6.40;;
705;SDS011;21234;48.690;9.016;2023-06-22T10:49:16;10.77;;;7.67;;
705;SDS011;21234;48.690;9.016;2023-06-22T10:51:43;10.00;;;7.20;;
705;SDS011;21234;48.690;9.016;2023-06-22T10:54:10;8.73;;;7.10;;
705;SDS011;21234;48.690;9.016;2023-06-22T10:56:40;12.87;;;7.47;;
705;SDS011;21234;48.690;9.016;2023-06-22T10:59:06;7.33;;;6.73;;
705;SDS011;21234;48.690;9.016;2023-06-22T11:01:33;7.13;;;6.53;;
705;SDS011;21234;48.690;9.016;2023-06-22T11:04:00;9.43;;;7.10;;
705;SDS011;21234;48.690;9.016;2023-06-22T11:06:27;10.53;;;7.97;;
705;SDS011;21234;48.690;9.016;2023-06-22T11:08:53;11.37;;;7.10;;
705;SDS011;21234;48.690;9.016;2023-06-22T11:11:20;9.43;;;6.80;;
705;SDS011;21234;48.690;9.016;2023-06-22T11:13:48;9.00;;;6.27;;
705;SDS011;21234;48.690;9.016;2023-06-22T11:16:15;8.57;;;7.57;;
705;SDS011;21234;48.690;9.016;2023-06-22T11:18:42;6.87;;;6.20;;
705;SDS011;21234;48.690;9.016;2023-06-22T11:21:09;8.27;;;6.40;;
705;SDS011;21234;48.690;9.016;2023-06-22T11:23:35;10.93;;;7.70;;
705;SDS011;21234;48.690;9.016;2023-06-22T11:26:02;8.27;;;7.40;;
705;SDS011;21234;48.690;9.016;2023-06-22T11:28:29;9.23;;;7.60;;
705;SDS011;21234;48.690;9.016;2023-06-22T11:30:57;8.47;;;7.47;;
705;SDS011;21234;48.690;9.016;2023-06-22T11:33:24;7.27;;;6.57;;
705;SDS011;21234;48.690;9.016;2023-06-22T11:35:50;8.73;;;6.90;;
705;SDS011;21234;48.690;9.016;2023-06-22T11:38:17;12.30;;;6.83;;
705;SDS011;21234;48.690;9.016;2023-06-22T11:40:44;11.13;;;7.60;;
705;SDS011;21234;48.690;9.016;2023-06-22T11:43:10;7.53;;;6.83;;
705;SDS011;21234;48.690;9.016;2023-06-22T11:45:37;11.07;;;8.33;;
705;SDS011;21234;48.690;9.016;2023-06-22T11:48:05;9.17;;;7.20;;
705;SDS011;21234;48.690;9.016;2023-06-22T11:50:32;8.37;;;6.87;;
705;SDS011;21234;48.690;9.016;2023-06-22T11:53:01;10.40;;;7.60;;
705;SDS011;21234;48.690;9.016;2023-06-22T11:55:27;8.43;;;7.40;;
705;SDS011;21234;48.690;9.016;2023-06-22T11:57:56;13.87;;;7.90;;
705;SDS011;21234;48.690;9.016;2023-06-22T12:00:28;8.07;;;7.13;;
705;SDS011;21234;48.690;9.016;2023-06-22T12:02:54;8.83;;;8.03;;
705;SDS011;21234;48.690;9.016;2023-06-22T12:05:23;11.27;;;7.83;;
705;SDS011;21234;48.690;9.016;2023-06-22T12:07:50;8.10;;;7.33;;
705;SDS011;21234;48.690;9.016;2023-06-22T12:10:19;8.67;;;7.70;;
705;SDS011;21234;48.690;9.016;2023-06-22T12:12:46;8.43;;;6.80;;
705;SDS011;21234;48.690;9.016;2023-06-22T12:15:13;9.53;;;7.50;;
705;SDS011;21234;48.690;9.016;2023-06-22T12:17:40;9.03;;;7.33;;
705;SDS011;21234;48.690;9.016;2023-06-22T12:20:08;8.33;;;7.33;;
705;SDS011;21234;48.690;9.016;2023-06-22T12:22:37;12.30;;;7.43;;
705;SDS011;21234;48.690;9.016;2023-06-22T12:25:04;7.83;;;6.93;;
705;SDS011;21234;48.690;9.016;2023-06-22T12:27:32;6.77;;;6.13;;
705;SDS011;21234;48.690;9.016;2023-06-22T12:30:00;9.20;;;7.67;;
705;SDS011;21234;48.690;9.016;2023-06-22T12:32:28;11.33;;;7.30;;
705;SDS011;21234;48.690;9.016;2023-06-22T12:34:55;9.00;;;8.10;;
705;SDS011;21234;48.690;9.016;2023-06-22T12:37:22;9.40;;;7.70;;
705;SDS011;21234;48.690;9.016;2023-06-22T12:39:51;8.73;;;7.43;;
705;SDS011;21234;48.690;9.016;2023-06-22T12:42:19;10.03;;;7.30;;
705;SDS011;21234;48.690;9.016;2023-06-22T12:44:46;13.03;;;7.43;;
705;SDS011;21234;48.690;9.016;2023-06-22T12:47:12;8.33;;;6.70;;
705;SDS011;21234;48.690;9.016;2023-06-22T12:49:39;10.67;;;7.23;;
705;SDS011;21234;48.690;9.016;2023-06-22T12:52:08;8.03;;;7.33;;
705;SDS011;21234;48.690;9.016;2023-06-22T12:54:36;8.60;;;7.47;;
705;SDS011;21234;48.690;9.016;2023-06-22T12:57:05;9.10;;;7.20;;
705;SDS011;21234;48.690;9.016;2023-06-22T12:59:32;13.93;;;7.80;;
705;SDS011;21234;48.690;9.016;2023-06-22T13:01:59;9.27;;;8.20;;
705;SDS011;21234;48.690;9.016;2023-06-22T13:04:25;8.97;;;6.90;;
705;SDS011;21234;48.690;9.016;2023-06-22T13:06:52;12.57;;;8.57;;
705;SDS011;21234;48.690;9.016;2023-06-22T13:09:19;8.10;;;7.30;;
705;SDS011;21234;48.690;9.016;2023-06-22T13:11:46;8.80;;;7.43;;
705;SDS011;21234;48.690;9.016;2023-06-22T13:14:14;11.43;;;7.00;;
705;SDS011;21234;48.690;9.016;2023-06-22T13:16:41;12.83;;;8.20;;
705;SDS011;21234;48.690;9.016;2023-06-22T13:19:08;9.50;;;7.10;;
705;SDS011;21234;48.690;9.016;2023-06-22T13:21:34;8.27;;;7.43;;
705;SDS011;21234;48.690;9.016;2023-06-22T13:24:01;12.17;;;7.90;;
705;SDS011;21234;48.690;9.016;2023-06-22T13:26:28;19.97;;;8.60;;
705;SDS011;21234;48.690;9.016;2023-06-22T13:28:55;10.80;;;7.60;;
705;SDS011;21234;48.690;9.016;2023-06-22T13:31:23;10.30;;;7.57;;
705;SDS011;21234;48.690;9.016;2023-06-22T13:33:50;8.27;;;6.50;;
705;SDS011;21234;48.690;9.016;2023-06-22T13:36:17;14.67;;;8.00;;
705;SDS011;21234;48.690;9.016;2023-06-22T13:38:44;14.77;;;7.20;;
705;SDS011;21234;48.690;9.016;2023-06-22T13:41:11;10.33;;;7.07;;
705;SDS011;21234;48.690;9.016;2023-06-22T13:43:38;9.27;;;7.30;;
705;SDS011;21234;48.690;9.016;2023-06-22T13:46:04;8.60;;;6.60;;
705;SDS011;21234;48.690;9.016;2023-06-22T13:48:32;7.80;;;7.00;;
705;SDS011;21234;48.690;9.016;2023-06-22T13:50:59;8.73;;;6.80;;
705;SDS011;21234;48.690;9.016;2023-06-22T13:53:26;11.50;;;8.10;;
705;SDS011;21234;48.690;9.016;2023-06-22T13:55:53;8.37;;;7.00;;
705;SDS011;21234;48.690;9.016;2023-06-22T13:58:19;9.23;;;6.70;;
705;SDS011;21234;48.690;9.016;2023-06-22T14:00:46;11.53;;;7.40;;
705;SDS011;21234;48.690;9.016;2023-06-22T14:03:14;10.00;;;6.63;;
705;SDS011;21234;48.690;9.016;2023-06-22T14:05:43;7.37;;;6.40;;
705;SDS011;21234;48.690;9.016;2023-06-22T14:08:10;12.03;;;7.50;;
705;SDS011;21234;48.690;9.016;2023-06-22T14:10:37;12.20;;;7.00;;
705;SDS011;21234;48.690;9.016;2023-06-22T14:13:04;11.37;;;6.80;;
705;SDS011;21234;48.690;9.016;2023-06-22T14:15:32;9.67;;;7.47;;
705;SDS011;21234;48.690;9.016;2023-06-22T14:17:58;13.70;;;6.53;;
705;SDS011;21234;48.690;9.016;2023-06-22T14:20:25;9.10;;;6.60;;
705;SDS011;21234;48.690;9.016;2023-06-22T14:22:53;7.30;;;5.37;;
705;SDS011;21234;48.690;9.016;2023-06-22T14:25:20;11.20;;;6.17;;
705;SDS011;21234;48.690;9.016;2023-06-22T14:27:46;6.20;;;4.57;;
705;SDS011;21234;48.690;9.016;2023-06-22T14:30:13;17.87;;;5.60;;
705;SDS011;21234;48.690;9.016;2023-06-22T14:32:40;12.20;;;5.20;;
705;SDS011;21234;48.690;9.016;2023-06-22T14:35:09;8.63;;;4.53;;
705;SDS011;21234;48.690;9.016;2023-06-22T14:37:36;7.60;;;4.80;;
705;SDS011;21234;48.690;9.016;2023-06-22T14:40:05;10.10;;;5.07;;
705;SDS011;21234;48.690;9.016;2023-06-22T14:42:33;8.97;;;4.70;;
705;SDS011;21234;48.690;9.016;2023-06-22T14:45:00;11.90;;;4.90;;
705;SDS011;21234;48.690;9.016;2023-06-22T14:47:27;5.87;;;4.40;;
705;SDS011;21234;48.690;9.016;2023-06-22T14:49:54;7.27;;;4.50;;
705;SDS011;21234;48.690;9.016;2023-06-22T14:52:22;10.13;;;4.70;;
705;SDS011;21234;48.690;9.016;2023-06-22T14:54:51;7.30;;;4.33;;
705;SDS011;21234;48.690;9.016;2023-06-22T14:57:21;7.90;;;4.43;;
705;SDS011;21234;48.690;9.016;2023-06-22T14:59:49;6.27;;;4.67;;
705;SDS011;21234;48.690;9.016;2023-06-22T15:02:17;7.77;;;4.90;;
705;SDS011;21234;48.690;9.016;2023-06-22T15:04:43;6.97;;;4.80;;
705;SDS011;21234;48.690;9.016;2023-06-22T15:07:12;5.40;;;3.97;;
705;SDS011;21234;48.690;9.016;2023-06-22T15:09:40;9.70;;;4.30;;
705;SDS011;21234;48.690;9.016;2023-06-22T15:12:08;9.03;;;4.17;;